Aviation Digital Data Service (ADDS)

Output produced by TAFs form (0123 UTC 23 July 2017)
found at http://www.aviationweather.gov/adds/tafs/
 
METAR text: ROYN 230100Z AUTO 18008KT 140V220 9999 FEW017 BKN150 32/27 Q1009
Conditions at: ROYN (YONAGUNI AIRPORT, JP) observed 0100 UTC 23 July 2017
Temperature: 32.0°C (90°F)
Dewpoint: 27.0°C (81°F) [RH = 75%]
Pressure (altimeter): 29.79 inches Hg (1009.0 mb)
Winds: from the S (180 degrees) at 9 MPH (8 knots; 4.2 m/s)
Visibility: 6 or more miles (10+ km)
Ceiling: 15000 feet AGL
Clouds: few clouds at 1700 feet AGL
broken clouds at 15000 feet AGL
Weather: no significant weather observed at this time